Time;durP1;ratioP1;P1;durP2;ratioP2;P2;SDS_P1;SDS_P2;PMS_P1;PMS_P2;Temp;Humidity;BMP_temperature;BMP_pressure;BME280_temperature;BME280_humidity;BME280_pressure;Samples;Min_cycle;Max_cycle;Signal;HPM_P1;HPM_P2
2022/11/15 00:00:03;;;;;;;43.20;17.30;;;;;;;6.56;100.00;100736.66;5026787;28;20103;-75
2022/11/15 00:02:47;;;;;;;40.78;19.50;;;;;;;6.59;100.00;100737.34;5040278;28;20132;-75
2022/11/15 00:05:35;;;;;;;43.90;19.58;;;;;;;6.65;100.00;100730.72;5033907;28;20503;-75
2022/11/15 00:08:19;;;;;;;41.00;17.55;;;;;;;6.71;100.00;100729.47;5048393;28;20047;-74
2022/11/15 00:11:03;;;;;;;43.20;19.02;;;;;;;6.76;100.00;100732.78;5047201;28;20103;-75
2022/11/15 00:13:47;;;;;;;43.40;18.20;;;;;;;6.81;100.00;100731.56;5028674;28;20104;-75
2022/11/15 00:16:30;;;;;;;36.03;18.83;;;;;;;6.86;100.00;100737.56;5028288;28;20047;-75
2022/11/15 00:19:14;;;;;;;36.10;16.98;;;;;;;6.92;100.00;100736.34;5041696;28;20074;-75
2022/11/15 00:21:58;;;;;;;36.65;18.20;;;;;;;6.99;100.00;100734.13;5028645;28;20047;-75
2022/11/15 00:24:42;;;;;;;36.42;17.88;;;;;;;7.06;100.00;100735.53;5027722;28;20085;-75
2022/11/15 00:27:27;;;;;;;40.10;17.60;;;;;;;7.09;100.00;100721.81;5039796;28;20072;-75
2022/11/15 00:30:12;;;;;;;33.10;15.90;;;;;;;7.14;100.00;100728.69;5048045;28;20436;-75
2022/11/15 00:32:56;;;;;;;35.63;17.67;;;;;;;7.18;100.00;100731.19;5028280;28;20060;-75
2022/11/15 00:35:39;;;;;;;33.90;16.58;;;;;;;7.27;100.00;100733.34;5028814;28;20052;-75
2022/11/15 00:38:23;;;;;;;35.45;17.17;;;;;;;7.30;100.00;100720.50;5026616;28;20404;-75
2022/11/15 00:41:08;;;;;;;37.05;16.83;;;;;;;7.37;100.00;100727.31;5027699;28;20111;-75
2022/11/15 00:43:52;;;;;;;33.75;17.17;;;;;;;7.44;100.00;100719.66;5028588;28;20071;-75
2022/11/15 00:46:36;;;;;;;33.08;16.75;;;;;;;7.49;100.00;100722.97;5028290;28;20083;-75
2022/11/15 00:49:20;;;;;;;34.47;16.25;;;;;;;7.54;100.00;100706.44;5027134;28;20072;-75
2022/11/15 00:52:04;;;;;;;40.15;16.80;;;;;;;7.58;100.00;100711.56;5027929;28;20052;-75
2022/11/15 00:54:48;;;;;;;31.35;16.83;;;;;;;7.62;100.00;100706.81;5027808;28;20381;-75
2022/11/15 00:57:32;;;;;;;34.28;16.83;;;;;;;7.66;100.00;100706.53;5026767;28;20380;-75
2022/11/15 01:00:16;;;;;;;36.80;16.23;;;;;;;7.70;100.00;100707.22;5028513;28;20104;-75
2022/11/15 01:03:01;;;;;;;34.40;17.27;;;;;;;7.77;100.00;100707.69;5026698;28;20047;-75
2022/11/15 01:05:45;;;;;;;34.30;15.60;;;;;;;7.79;100.00;100705.78;5029324;28;20077;-75
2022/11/15 01:08:29;;;;;;;33.15;16.65;;;;;;;7.83;100.00;100708.19;5031494;28;20434;-75
2022/11/15 01:11:13;;;;;;;33.08;16.65;;;;;;;7.89;100.00;100701.53;5030268;28;20144;-75
2022/11/15 01:13:57;;;;;;;32.13;16.10;;;;;;;7.92;100.00;100706.72;5031879;28;20068;-75
2022/11/15 01:16:41;;;;;;;33.03;16.65;;;;;;;7.99;100.00;100699.97;5034508;28;20052;-74
2022/11/15 01:19:25;;;;;;;33.10;15.90;;;;;;;8.05;100.00;100696.84;5030205;28;20045;-75
2022/11/15 01:22:09;;;;;;;33.75;16.88;;;;;;;8.08;100.00;100691.25;5031471;28;20095;-75
2022/11/15 01:24:52;;;;;;;30.80;15.75;;;;;;;8.13;100.00;100689.09;5030583;28;20048;-74
2022/11/15 01:27:36;;;;;;;31.58;16.30;;;;;;;8.16;100.00;100688.91;5031494;28;20044;-75
2022/11/15 01:30:20;;;;;;;33.42;16.38;;;;;;;8.17;100.00;100685.22;5030842;28;20063;-76
2022/11/15 01:33:04;;;;;;;32.03;15.80;;;;;;;8.19;100.00;100679.69;5035046;28;20125;-75
2022/11/15 01:35:48;;;;;;;31.33;15.43;;;;;;;8.22;100.00;100679.50;5043037;28;20053;-75
2022/11/15 01:38:32;;;;;;;31.52;15.30;;;;;;;8.25;100.00;100676.56;5031007;28;20048;-75
2022/11/15 01:41:19;;;;;;;34.17;15.77;;;;;;;8.26;100.00;100685.59;5032776;28;20795;-75
2022/11/15 01:44:31;;;;;;;31.60;16.30;;;;;;;8.29;100.00;100679.97;5036679;28;20129;-75
2022/11/15 01:47:17;;;;;;;32.97;16.02;;;;;;;8.33;100.00;100687.78;5032842;28;20118;-75
2022/11/15 01:50:27;;;;;;;23.85;13.82;;;;;;;8.35;100.00;100685.88;5036861;28;20057;-75
2022/11/15 01:53:12;;;;;;;32.88;15.95;;;;;;;8.40;100.00;100685.59;5028736;28;20091;-75
2022/11/15 01:55:56;;;;;;;26.85;15.85;;;;;;;8.45;100.00;100683.44;5030580;28;20053;-75
2022/11/15 01:58:42;;;;;;;31.38;16.92;;;;;;;8.48;100.00;100679.66;5031307;28;20055;-75
2022/11/15 02:01:28;;;;;;;32.83;16.58;;;;;;;8.56;100.00;100685.44;5030207;28;20408;-75
2022/11/15 02:04:20;;;;;;;37.22;16.52;;;;;;;8.59;100.00;100669.84;5030462;28;20059;-75
2022/11/15 02:07:07;;;;;;;32.40;17.50;;;;;;;8.65;100.00;100665.84;5030430;28;20075;-75
2022/11/15 02:09:51;;;;;;;28.75;15.10;;;;;;;8.63;100.00;100671.38;5029333;28;20076;-74
2022/11/15 02:12:36;;;;;;;30.13;15.57;;;;;;;8.69;100.00;100660.09;5035896;28;20056;-75
2022/11/15 02:15:21;;;;;;;29.17;15.15;;;;;;;8.72;100.00;100666.28;5034964;28;20052;-75
2022/11/15 02:18:15;;;;;;;30.02;16.85;;;;;;;8.74;100.00;100651.66;5031596;28;20130;-75
2022/11/15 02:21:36;;;;;;;33.22;17.45;;;;;;;8.81;100.00;100653.00;5030687;28;20412;-75
2022/11/15 02:24:41;;;;;;;31.42;16.15;;;;;;;8.82;100.00;100648.44;5030859;28;20047;-75
2022/11/15 02:27:40;;;;;;;34.15;16.13;;;;;;;8.89;100.00;100652.44;5030165;28;20044;-75
2022/11/15 02:31:26;;;;;;;36.38;17.40;;;;;;;8.93;100.00;100651.25;5030584;28;20416;-75
2022/11/15 02:34:16;;;;;;;31.33;16.92;;;;;;;8.99;100.00;100649.97;5016382;28;20111;-75
2022/11/15 02:37:24;;;;;;;33.40;16.90;;;;;;;9.04;100.00;100650.50;5030047;28;20048;-75
2022/11/15 02:40:46;;;;;;;31.92;16.50;;;;;;;9.12;100.00;100646.31;5030365;28;20572;-75
2022/11/15 02:43:56;;;;;;;29.25;15.57;;;;;;;9.15;100.00;100646.09;5028608;28;20479;-75
2022/11/15 02:49:53;;;;;;;32.63;16.25;;;;;;;9.25;100.00;100631.88;5030175;28;20122;-75
2022/11/15 02:52:37;;;;;;;37.47;18.20;;;;;;;9.29;100.00;100630.69;5030103;28;20041;-74
2022/11/15 02:55:35;;;;;;;35.90;18.20;;;;;;;9.32;100.00;100631.31;5028737;28;20072;-74
2022/11/15 02:58:48;;;;;;;30.95;17.13;;;;;;;9.34;100.00;100623.97;5047909;28;20075;-74
2022/11/15 03:01:47;;;;;;;31.73;17.20;;;;;;;9.38;100.00;100619.19;5048066;28;20078;-74
2022/11/15 03:04:55;;;;;;;32.45;17.45;;;;;;;9.41;100.00;100625.25;5033190;28;20045;-74
2022/11/15 03:07:49;;;;;;;33.67;17.42;;;;;;;9.44;100.00;100616.88;5029583;28;20151;-75
2022/11/15 03:10:52;;;;;;;35.10;17.75;;;;;;;9.47;100.00;100623.09;5029792;28;20328;-75
2022/11/15 03:13:40;;;;;;;31.65;17.45;;;;;;;9.46;100.00;100624.91;5030350;28;20056;-75
2022/11/15 03:16:36;;;;;;;38.35;19.05;;;;;;;9.48;100.00;100616.69;5029116;28;20056;-75
2022/11/15 03:19:44;;;;;;;36.53;19.38;;;;;;;9.51;100.00;100620.03;5029205;28;20076;-74
2022/11/15 03:22:33;;;;;;;37.20;17.38;;;;;;;9.56;100.00;100619.69;5029664;28;20539;-74
2022/11/15 03:25:22;;;;;;;34.17;18.42;;;;;;;9.58;100.00;100626.75;5029925;28;20052;-74
2022/11/15 03:28:11;;;;;;;32.65;17.85;;;;;;;9.60;100.00;100613.06;5029314;28;20048;-74
2022/11/15 03:30:56;;;;;;;34.33;17.70;;;;;;;9.62;100.00;100630.13;5029191;28;20052;-75
2022/11/15 03:33:40;;;;;;;33.60;17.77;;;;;;;9.63;100.00;100621.88;5029571;28;20052;-74
2022/11/15 03:36:25;;;;;;;32.15;16.80;;;;;;;9.65;100.00;100616.31;5029094;28;20557;-74
2022/11/15 03:39:11;;;;;;;33.08;17.83;;;;;;;9.66;100.00;100618.94;5029417;28;20064;-75
2022/11/15 03:42:11;;;;;;;35.90;17.13;;;;;;;9.66;100.00;100621.66;5029183;28;20487;-75
2022/11/15 03:45:08;;;;;;;32.97;17.02;;;;;;;9.68;100.00;100625.13;5029070;28;20052;-75
2022/11/15 03:48:04;;;;;;;34.70;18.45;;;;;;;9.71;100.00;100618.59;5029189;28;20151;-75
2022/11/15 03:50:49;;;;;;;34.38;17.48;;;;;;;9.73;100.00;100619.34;5028491;28;20044;-75
2022/11/15 03:53:33;;;;;;;34.45;17.77;;;;;;;9.73;100.00;100623.91;5029114;28;20079;-75
2022/11/15 03:56:17;;;;;;;35.70;17.13;;;;;;;9.70;100.00;100620.47;5028635;28;20103;-75
2022/11/15 03:59:01;;;;;;;34.38;18.48;;;;;;;9.71;100.00;100613.16;5047786;28;20052;-75
2022/11/15 04:01:45;;;;;;;32.50;18.17;;;;;;;9.72;100.00;100625.75;5030082;28;20103;-74
2022/11/15 04:04:29;;;;;;;31.20;17.27;;;;;;;9.73;100.00;100621.19;5042956;28;20522;-75
2022/11/15 04:07:13;;;;;;;34.08;18.27;;;;;;;9.74;100.00;100622.94;5029003;28;20044;-74
2022/11/15 04:10:03;;;;;;;38.05;19.10;;;;;;;9.77;100.00;100617.28;5027485;28;20088;-75
2022/11/15 04:12:47;;;;;;;34.22;18.17;;;;;;;9.78;100.00;100622.59;5028279;28;20060;-75
2022/11/15 04:15:31;;;;;;;37.25;17.90;;;;;;;9.80;100.00;100617.94;5027679;28;20099;-75
2022/11/15 04:18:15;;;;;;;39.78;18.33;;;;;;;9.80;100.00;100611.63;5028755;28;20064;-74
2022/11/15 04:24:14;;;;;;;36.58;18.52;;;;;;;9.79;100.00;100615.31;5028632;28;20099;-74
2022/11/15 04:26:58;;;;;;;34.70;18.33;;;;;;;9.78;100.00;100616.28;5028351;28;20051;-75
2022/11/15 04:29:42;;;;;;;35.17;18.33;;;;;;;9.76;100.00;100611.00;5028405;28;20087;-74
2022/11/15 04:32:26;;;;;;;39.63;18.67;;;;;;;9.80;100.00;100608.91;5028092;28;20409;-74
2022/11/15 04:35:10;;;;;;;41.38;19.25;;;;;;;9.80;100.00;100609.78;5027701;28;20200;-75
2022/11/15 04:37:56;;;;;;;39.40;20.10;;;;;;;9.80;100.00;100615.22;5027249;28;20056;-74
2022/11/15 04:40:40;;;;;;;39.67;18.50;;;;;;;9.78;100.00;100611.72;5031848;28;20080;-75
2022/11/15 04:43:24;;;;;;;37.78;19.25;;;;;;;9.80;100.00;100622.50;5031177;28;20064;-74
2022/11/15 04:46:08;;;;;;;40.58;20.00;;;;;;;9.80;100.00;100615.22;5040519;28;20453;-75
2022/11/15 04:48:53;;;;;;;38.08;19.33;;;;;;;9.82;100.00;100620.53;5042440;28;20044;-75
2022/11/15 04:51:36;;;;;;;36.60;18.48;;;;;;;9.84;100.00;100621.28;5032053;28;20095;-75
2022/11/15 04:54:20;;;;;;;38.58;19.70;;;;;;;9.84;100.00;100618.56;5031877;28;20119;-74
2022/11/15 04:57:04;;;;;;;35.65;19.83;;;;;;;9.86;100.00;100619.34;5031851;28;20052;-74
2022/11/15 04:59:48;;;;;;;36.42;18.70;;;;;;;9.84;100.00;100616.75;5031052;28;20099;-74
2022/11/15 05:05:34;;;;;;;36.85;18.40;;;;;;;9.87;100.00;100610.19;5031710;28;20599;-74
2022/11/15 05:08:18;;;;;;;36.35;18.33;;;;;;;9.88;100.00;100610.06;5031720;28;20394;-75
2022/11/15 05:11:02;;;;;;;38.45;19.95;;;;;;;9.87;100.00;100613.78;5031698;28;20080;-75
2022/11/15 05:13:46;;;;;;;33.78;17.75;;;;;;;9.84;100.00;100608.59;5032157;28;20052;-74
2022/11/15 05:16:30;;;;;;;33.35;18.73;;;;;;;9.87;100.00;100618.34;5031635;28;20071;-76
2022/11/15 05:19:14;;;;;;;38.88;18.17;;;;;;;9.85;100.00;100606.72;5044331;28;20071;-75
2022/11/15 05:21:58;;;;;;;31.05;17.70;;;;;;;9.83;100.00;100609.53;5034345;28;20091;-74
2022/11/15 05:24:42;;;;;;;32.70;18.05;;;;;;;9.85;100.00;100606.72;5030444;28;20064;-75
2022/11/15 05:27:26;;;;;;;33.58;16.80;;;;;;;9.86;100.00;100603.88;5038494;28;20095;-74
2022/11/15 05:30:10;;;;;;;40.65;18.73;;;;;;;9.87;100.00;100599.31;5032188;28;20079;-75
2022/11/15 05:32:54;;;;;;;37.95;17.55;;;;;;;9.89;100.00;100608.25;5030434;28;20405;-74
2022/11/15 05:35:45;;;;;;;41.88;18.70;;;;;;;9.89;100.00;100608.25;5035117;28;20146;-75
2022/11/15 05:38:30;;;;;;;39.40;19.17;;;;;;;9.90;100.00;100605.41;5034170;28;20129;-74
2022/11/15 05:41:15;;;;;;;35.70;19.65;;;;;;;9.90;100.00;100601.81;5031244;28;20420;-74
2022/11/15 05:44:01;;;;;;;36.55;18.85;;;;;;;9.90;100.00;100599.97;5031351;28;20064;-74
2022/11/15 05:46:45;;;;;;;33.03;17.73;;;;;;;9.88;100.00;100587.47;5031193;28;20049;-74
2022/11/15 05:49:33;;;;;;;36.53;19.35;;;;;;;9.85;100.00;100594.00;5029996;28;20060;-74
2022/11/15 05:52:22;;;;;;;31.42;16.80;;;;;;;9.85;100.00;100590.44;5029383;28;20515;-75
2022/11/15 05:55:08;;;;;;;32.92;18.63;;;;;;;9.83;100.00;100595.97;5037282;28;20882;-75
2022/11/15 05:57:52;;;;;;;33.75;18.13;;;;;;;9.82;100.00;100602.38;5035796;28;20428;-75
2022/11/15 06:00:36;;;;;;;32.40;19.10;;;;;;;9.80;100.00;100608.91;5050121;28;20087;-75
2022/11/15 06:03:20;;;;;;;30.05;17.50;;;;;;;9.80;100.00;100614.34;5048587;28;20051;-75
2022/11/15 06:06:04;;;;;;;31.08;17.15;;;;;;;9.77;100.00;100611.84;5049411;28;20086;-74
2022/11/15 06:08:48;;;;;;;39.00;18.33;;;;;;;9.81;100.00;100618.81;5046835;28;20083;-74
2022/11/15 06:11:32;;;;;;;36.90;17.95;;;;;;;9.79;100.00;100616.22;5030506;28;20183;-75
2022/11/15 06:14:16;;;;;;;34.28;16.92;;;;;;;9.79;100.00;100616.22;5036617;28;20044;-74
2022/11/15 06:17:00;;;;;;;32.53;17.33;;;;;;;9.81;100.00;100616.94;5029707;28;20392;-75
2022/11/15 06:19:44;;;;;;;30.60;16.95;;;;;;;9.83;100.00;100623.13;5031940;28;20123;-75
2022/11/15 06:22:28;;;;;;;33.47;16.95;;;;;;;9.85;100.00;100623.03;5045422;28;20044;-75
2022/11/15 06:25:12;;;;;;;32.50;17.42;;;;;;;9.86;100.00;100622.91;5043018;28;20119;-75
2022/11/15 06:27:57;;;;;;;33.83;18.08;;;;;;;9.85;100.00;100629.34;5029688;28;20416;-75
2022/11/15 06:30:41;;;;;;;37.28;18.48;;;;;;;9.85;100.00;100634.78;5030674;28;20044;-74
2022/11/15 06:33:25;;;;;;;31.42;17.40;;;;;;;9.86;100.00;100633.78;5029309;28;20397;-75
2022/11/15 06:36:16;;;;;;;31.05;16.55;;;;;;;9.88;100.00;100633.66;5030572;28;20064;-75
2022/11/15 06:39:00;;;;;;;38.50;18.17;;;;;;;9.87;100.00;100642.78;5030320;28;20141;-76
2022/11/15 06:41:44;;;;;;;33.95;17.42;;;;;;;9.88;100.00;100630.94;5029143;28;20111;-75
2022/11/15 06:44:28;;;;;;;38.45;16.85;;;;;;;9.87;100.00;100635.50;5028482;28;20170;-75
2022/11/15 06:47:12;;;;;;;35.70;17.23;;;;;;;9.86;100.00;100635.63;5030112;28;20183;-74
2022/11/15 06:49:56;;;;;;;30.52;16.52;;;;;;;9.88;100.00;100641.81;5029344;28;20044;-75
2022/11/15 06:52:40;;;;;;;32.80;15.80;;;;;;;9.86;100.00;100641.94;5029708;28;20103;-75
2022/11/15 06:55:23;;;;;;;33.30;16.83;;;;;;;9.87;100.00;100640.94;5032026;28;20208;-74
2022/11/15 06:58:08;;;;;;;35.40;16.30;;;;;;;9.85;100.00;100644.78;5028991;28;20048;-75
2022/11/15 07:00:51;;;;;;;30.00;15.13;;;;;;;9.82;100.00;100636.84;5026190;28;20154;-74
2022/11/15 07:03:41;;;;;;;29.67;14.35;;;;;;;9.79;100.00;100645.19;5028727;28;20531;-75
2022/11/15 07:06:25;;;;;;;29.67;15.20;;;;;;;9.81;100.00;100648.69;5046072;28;20117;-74
2022/11/15 07:09:09;;;;;;;30.77;14.85;;;;;;;9.81;100.00;100654.13;5030858;28;20049;-74
2022/11/15 07:11:53;;;;;;;29.08;15.00;;;;;;;9.81;100.00;100649.56;5033233;28;20052;-75
2022/11/15 07:14:37;;;;;;;26.38;14.60;;;;;;;9.82;100.00;100654.00;5049047;28;20102;-75
2022/11/15 07:17:21;;;;;;;28.13;14.45;;;;;;;9.82;100.00;100658.56;5034137;28;20047;-74
2022/11/15 07:20:06;;;;;;;28.20;14.02;;;;;;;9.81;100.00;100662.28;5028807;28;20099;-75
2022/11/15 07:22:50;;;;;;;24.58;13.38;;;;;;;9.80;100.00;100655.09;5029234;28;20078;-75
2022/11/15 07:25:34;;;;;;;29.77;13.95;;;;;;;9.81;100.00;100656.84;5029355;28;20048;-74
2022/11/15 07:28:18;;;;;;;25.20;14.25;;;;;;;9.82;100.00;100661.28;5039825;28;20048;-74
2022/11/15 07:31:07;;;;;;;25.20;13.82;;;;;;;9.81;100.00;100665.84;5029096;28;20099;-74
2022/11/15 07:33:51;;;;;;;28.20;14.35;;;;;;;9.81;100.00;100665.84;5039617;28;20431;-74
2022/11/15 07:36:35;;;;;;;25.08;13.48;;;;;;;9.81;100.00;100668.56;5032104;28;20048;-74
2022/11/15 07:39:19;;;;;;;28.55;14.55;;;;;;;9.84;100.00;100660.22;5048654;28;20522;-74
2022/11/15 07:45:06;;;;;;;26.15;13.10;;;;;;;9.84;100.00;100649.34;5050300;28;20056;-74
2022/11/15 07:47:50;;;;;;;26.92;13.82;;;;;;;9.85;100.00;100644.78;5029613;28;20073;-74
2022/11/15 07:50:34;;;;;;;26.63;12.48;;;;;;;9.83;100.00;100649.44;5028507;28;20095;-74
2022/11/15 07:53:18;;;;;;;23.30;13.63;;;;;;;9.84;100.00;100648.44;5045131;28;20056;-74
2022/11/15 07:56:02;;;;;;;23.85;13.93;;;;;;;9.86;100.00;100649.22;5029214;28;20048;-74
2022/11/15 07:58:46;;;;;;;28.00;13.43;;;;;;;9.87;100.00;100642.78;5037551;28;20507;-74
2022/11/15 08:01:30;;;;;;;31.80;13.35;;;;;;;9.88;100.00;100650.81;5028001;28;20557;-74
2022/11/15 08:04:14;;;;;;;26.73;13.85;;;;;;;9.90;100.00;100651.59;5034962;28;20056;-74
2022/11/15 08:06:58;;;;;;;23.67;12.07;;;;;;;9.94;100.00;100657.69;5028350;28;20068;-74
2022/11/15 08:09:42;;;;;;;26.80;12.70;;;;;;;10.00;100.00;100667.25;5027502;28;20045;-74
2022/11/15 08:12:29;;;;;;;24.80;13.23;;;;;;;10.02;100.00;100674.28;5037994;28;20083;-74
2022/11/15 08:15:13;;;;;;;25.48;13.35;;;;;;;10.05;100.00;100667.78;5046011;28;20170;-74
2022/11/15 08:18:00;;;;;;;27.15;13.13;;;;;;;10.09;100.00;100667.44;5027701;28;20048;-74
2022/11/15 08:20:44;;;;;;;27.23;14.80;;;;;;;10.10;100.00;100660.13;5027733;28;20088;-74
2022/11/15 08:23:28;;;;;;;23.55;13.32;;;;;;;10.10;100.00;100660.13;5028640;28;20055;-74
2022/11/15 08:26:12;;;;;;;22.30;11.98;;;;;;;10.08;100.00;100652.09;5028057;28;20076;-74
2022/11/15 08:28:56;;;;;;;20.90;11.23;;;;;;;10.08;100.00;100662.97;5038850;28;20079;-74
2022/11/15 08:31:41;;;;;;;21.25;11.93;;;;;;;10.10;100.00;100665.56;5039676;28;20056;-74
2022/11/15 08:34:25;;;;;;;20.30;10.32;;;;;;;10.06;100.00;100656.78;5028635;28;20052;-74
2022/11/15 08:37:09;;;;;;;20.02;11.38;;;;;;;10.09;100.00;100655.69;5027982;28;20048;-74
2022/11/15 08:39:53;;;;;;;25.33;10.27;;;;;;;10.07;100.00;100641.31;5027465;28;20068;-74
2022/11/15 08:42:37;;;;;;;13.57;8.85;;;;;;;10.04;100.00;100645.16;5038728;28;20051;-74
2022/11/15 08:45:21;;;;;;;16.98;9.60;;;;;;;10.06;100.00;100645.03;5030396;28;20064;-74
2022/11/15 08:48:05;;;;;;;12.10;7.45;;;;;;;10.08;100.00;100637.66;5044229;28;20068;-74
2022/11/15 08:50:54;;;;;;;15.05;8.38;;;;;;;10.10;100.00;100633.81;5028234;28;20134;-74
2022/11/15 08:53:38;;;;;;;15.40;8.38;;;;;;;10.11;100.00;100626.53;5032143;28;20043;-73
2022/11/15 08:56:21;;;;;;;15.68;8.02;;;;;;;10.12;100.00;100629.16;5031967;28;20079;-74
2022/11/15 08:59:06;;;;;;;11.80;7.47;;;;;;;10.15;100.00;100623.47;5029349;28;20053;-73
2022/11/15 09:01:49;;;;;;;11.88;7.28;;;;;;;10.18;100.00;100625.97;5037947;28;20099;-73
2022/11/15 09:04:33;;;;;;;14.05;7.22;;;;;;;10.26;100.00;100628.16;5028312;28;20515;-73
2022/11/15 09:07:17;;;;;;;10.75;6.70;;;;;;;10.34;100.00;100617.56;5027984;28;20463;-73
2022/11/15 09:10:01;;;;;;;9.98;6.22;;;;;;;10.39;100.00;100620.81;5028273;28;20407;-73
2022/11/15 09:12:48;;;;;;;14.20;7.20;;;;;;;10.41;100.00;100605.25;5027629;28;20119;-73
2022/11/15 09:15:32;;;;;;;9.38;6.03;;;;;;;10.43;100.00;100605.13;5028169;28;20067;-73
2022/11/15 09:18:16;;;;;;;9.68;6.78;;;;;;;10.44;99.75;100607.75;5031232;28;20049;-73
2022/11/15 09:21:01;;;;;;;13.23;4.95;;;;;;;10.43;99.43;100597.84;5028104;28;20052;-73
2022/11/15 09:23:46;;;;;;;11.30;5.35;;;;;;;10.40;98.41;100589.06;5028011;28;20044;-73
2022/11/15 09:26:30;;;;;;;9.82;4.65;;;;;;;10.40;98.93;100594.50;5028575;28;21464;-73
2022/11/15 09:29:14;;;;;;;9.25;4.57;;;;;;;10.39;97.98;100590.88;5031204;28;20400;-74
2022/11/15 09:31:58;;;;;;;6.18;4.60;;;;;;;10.40;98.65;100598.09;5031277;28;20099;-74
2022/11/15 09:34:42;;;;;;;6.95;4.45;;;;;;;10.48;98.14;100598.34;5030233;28;20053;-74
2022/11/15 09:37:26;;;;;;;8.38;4.55;;;;;;;10.53;96.26;100597.13;5031378;28;20052;-74
2022/11/15 09:40:16;;;;;;;6.53;4.43;;;;;;;10.54;97.33;100597.03;5030724;28;20115;-74
2022/11/15 09:43:37;;;;;;;5.32;4.18;;;;;;;10.62;97.68;100591.84;5031045;28;20519;-74
2022/11/15 09:46:55;;;;;;;5.25;4.07;;;;;;;10.72;96.81;100594.72;5035598;28;20120;-73
2022/11/15 09:49:41;;;;;;;7.75;3.85;;;;;;;10.77;95.70;100588.94;5031964;28;20048;-73
2022/11/15 09:52:18;;;;;;;6.60;3.22;;;;;;;10.83;96.37;100588.47;5030140;28;20048;-73
2022/11/15 09:54:47;;;;;;;5.18;3.53;;;;;;;10.87;93.90;100585.41;5030825;28;20048;-74
2022/11/15 09:57:21;;;;;;;5.45;3.05;;;;;;;10.95;93.16;100584.78;5030661;28;20471;-73
2022/11/15 09:59:55;;;;;;;4.07;2.72;;;;;;;10.97;93.40;100588.28;5047697;28;20476;-74
2022/11/15 10:02:30;;;;;;;4.40;1.95;;;;;;;10.98;91.10;100573.66;5019057;28;20040;-74
2022/11/15 10:04:58;;;;;;;3.65;2.13;;;;;;;10.96;89.82;100581.09;5032785;28;20491;-73
2022/11/15 10:07:29;;;;;;;3.55;1.90;;;;;;;10.98;89.09;100585.41;5043478;28;20273;-73
2022/11/15 10:10:20;;;;;;;4.68;2.20;;;;;;;10.97;89.61;100575.53;5031057;28;20038;-74
2022/11/15 10:12:49;;;;;;;3.47;1.70;;;;;;;10.96;88.22;100578.38;5023845;28;20398;-73
2022/11/15 10:15:19;;;;;;;3.03;1.80;;;;;;;11.01;87.11;100587.03;5030724;28;20484;-73
2022/11/15 10:18:04;;;;;;;3.80;1.85;;;;;;;11.06;86.45;100576.66;5030370;28;20430;-73
2022/11/15 10:20:35;;;;;;;2.75;1.50;;;;;;;11.07;85.04;100572.06;5030373;28;20041;-73
2022/11/15 10:23:05;;;;;;;6.93;1.80;;;;;;;11.04;85.40;100569.59;5028997;28;20088;-73
2022/11/15 10:25:33;;;;;;;5.95;1.73;;;;;;;11.04;84.74;100577.75;5030360;28;20030;-73
2022/11/15 10:28:00;;;;;;;4.57;1.48;;;;;;;10.97;82.98;100575.53;5030095;28;20086;-73
2022/11/15 10:30:36;;;;;;;5.65;2.00;;;;;;;10.95;86.64;100561.16;5029138;28;20037;-73
2022/11/15 10:33:20;;;;;;;3.05;1.63;;;;;;;10.91;85.16;100554.25;5030053;28;20045;-73
2022/11/15 10:35:45;;;;;;;4.38;1.58;;;;;;;10.94;86.14;100558.56;5028846;28;20463;-73
2022/11/15 10:38:11;;;;;;;5.75;1.73;;;;;;;10.99;85.07;100549.03;5029833;28;20121;-74
2022/11/15 10:40:39;;;;;;;4.38;1.42;;;;;;;11.04;82.93;100547.81;5030527;28;20133;-73
2022/11/15 10:43:10;;;;;;;4.03;1.60;;;;;;;11.10;82.92;100550.06;5028752;28;20116;-73
2022/11/15 10:45:37;;;;;;;5.43;1.25;;;;;;;11.14;83.71;100543.38;5029042;28;20477;-73
2022/11/15 10:48:11;;;;;;;6.45;1.33;;;;;;;11.19;82.89;100533.88;5028256;28;20030;-74
2022/11/15 10:50:37;;;;;;;2.20;1.17;;;;;;;11.23;80.69;100527.16;5028846;28;20037;-74
2022/11/15 10:53:03;;;;;;;4.70;1.23;;;;;;;11.22;78.71;100525.44;5028643;28;20099;-73
2022/11/15 10:55:34;;;;;;;5.80;1.15;;;;;;;11.32;81.05;100527.41;5028262;28;20415;-73
2022/11/15 10:58:19;;;;;;;9.55;1.80;;;;;;;11.39;81.77;100531.38;5028313;28;20047;-73
2022/11/15 11:00:46;;;;;;;4.68;1.55;;;;;;;11.54;80.30;100523.81;5011961;28;20381;-73
2022/11/15 11:03:37;;;;;;;3.97;1.20;;;;;;;11.62;79.99;100519.47;5027723;28;20029;-74
2022/11/15 11:06:20;;;;;;;5.38;1.52;;;;;;;11.79;81.12;100507.16;5029549;28;20041;-73
2022/11/15 11:08:56;;;;;;;2.53;1.20;;;;;;;11.92;81.10;100513.38;5029715;28;20041;-73
2022/11/15 11:11:21;;;;;;;3.97;1.40;;;;;;;12.06;79.05;100505.91;5029367;28;20480;-73
2022/11/15 11:13:48;;;;;;;7.97;1.30;;;;;;;12.14;76.68;100501.53;5040103;28;20103;-73
2022/11/15 11:16:13;;;;;;;3.88;1.25;;;;;;;12.17;74.81;100492.22;5031182;28;20463;-73
2022/11/15 11:18:51;;;;;;;5.75;1.13;;;;;;;12.16;77.75;100488.63;5043525;28;20025;-73
2022/11/15 11:21:49;;;;;;;4.68;1.50;;;;;;;12.23;76.59;100487.13;5029583;28;20037;-73
2022/11/15 11:24:25;;;;;;;7.07;1.52;;;;;;;12.32;76.27;100484.63;5038401;28;20098;-73
2022/11/15 11:27:02;;;;;;;2.80;1.40;;;;;;;12.38;76.25;100470.44;5042239;28;20475;-73
2022/11/15 11:29:49;;;;;;;2.30;1.30;;;;;;;12.37;75.11;100472.31;5028105;28;20124;-73
2022/11/15 11:32:44;;;;;;;4.50;1.45;;;;;;;12.26;74.54;100458.69;5040394;28;20361;-73
2022/11/15 11:35:30;;;;;;;3.65;1.25;;;;;;;12.30;76.09;100449.25;5036641;28;20116;-73
2022/11/15 11:38:24;;;;;;;6.97;1.25;;;;;;;12.34;76.36;100448.00;5038277;28;20034;-73
2022/11/15 11:41:10;;;;;;;4.78;1.50;;;;;;;12.44;78.04;100440.75;5028796;28;20120;-73
2022/11/15 11:43:57;;;;;;;3.70;1.70;;;;;;;12.55;75.21;100436.25;5029106;28;20037;-73
2022/11/15 11:47:02;;;;;;;3.05;1.25;;;;;;;12.61;75.43;100425.63;5029883;28;20523;-74
2022/11/15 11:50:21;;;;;;;2.75;1.10;;;;;;;12.67;75.19;100429.69;5031098;28;20050;-73
2022/11/15 11:53:12;;;;;;;6.25;1.30;;;;;;;12.77;75.47;100423.28;4970983;28;20040;-73
2022/11/15 11:55:43;;;;;;;7.47;1.25;;;;;;;12.90;74.05;100420.31;5025017;28;20084;-74
2022/11/15 11:58:21;;;;;;;6.60;1.85;;;;;;;12.94;74.64;100405.41;5027361;28;20072;-73
2022/11/15 12:00:53;;;;;;;3.03;1.50;;;;;;;12.96;72.23;100411.63;5028603;28;20060;-74
2022/11/15 12:03:50;;;;;;;4.28;1.38;;;;;;;13.05;72.52;100409.91;5028355;28;20452;-74
2022/11/15 12:06:42;;;;;;;2.72;0.88;;;;;;;13.00;72.09;100403.97;4993787;28;20049;-74
2022/11/15 12:09:37;;;;;;;3.70;1.00;;;;;;;12.94;72.63;100388.16;5029391;28;20099;-73
2022/11/15 12:12:25;;;;;;;5.40;1.40;;;;;;;12.92;71.64;100384.72;5026426;28;20049;-73
2022/11/15 12:14:55;;;;;;;4.65;1.27;;;;;;;12.89;71.47;100376.78;5028631;28;20037;-73
2022/11/15 12:17:26;;;;;;;7.25;1.30;;;;;;;12.93;71.14;100381.84;5028614;28;20160;-73
2022/11/15 12:19:56;;;;;;;4.85;1.20;;;;;;;12.91;71.20;100370.19;5042974;28;20432;-74
2022/11/15 12:22:36;;;;;;;6.82;1.20;;;;;;;12.94;71.61;100372.63;5046779;28;20044;-73
2022/11/15 12:25:14;;;;;;;4.15;1.10;;;;;;;12.96;70.01;100370.66;5043687;28;20033;-73
2022/11/15 12:27:51;;;;;;;4.00;1.25;;;;;;;12.98;71.16;100365.03;5037879;28;20037;-73
2022/11/15 12:30:21;;;;;;;4.85;1.10;;;;;;;12.96;71.11;100362.47;5028484;28;20045;-73
2022/11/15 12:32:59;;;;;;;2.10;0.93;;;;;;;12.97;70.71;100353.25;5023089;28;20021;-73
2022/11/15 12:35:34;;;;;;;7.47;1.10;;;;;;;12.96;70.29;100350.66;5047570;28;20376;-73
2022/11/15 12:38:00;;;;;;;9.25;1.25;;;;;;;12.87;68.66;100346.91;5048206;28;20033;-73
2022/11/15 12:40:35;;;;;;;6.00;2.33;;;;;;;12.83;70.83;100331.81;5048372;28;20036;-73
2022/11/15 12:43:02;;;;;;;1.30;1.08;;;;;;;12.77;69.74;100335.94;5033846;28;20515;-73
2022/11/15 12:45:37;;;;;;;6.50;1.10;;;;;;;12.77;71.79;100332.34;5027078;28;20105;-73